sensor_id;sensor_type;location;lat;lon;timestamp;pressure;altitude;pressure_sealevel;temperature
20092;BMP180;10205;49.678;6.560;2023-04-25T00:01:02;99356.00;;;15.20
20092;BMP180;10205;49.678;6.560;2023-04-25T00:03:30;99350.00;;;15.20
20092;BMP180;10205;49.678;6.560;2023-04-25T00:05:58;99351.00;;;15.20
20092;BMP180;10205;49.678;6.560;2023-04-25T00:08:28;99346.00;;;15.20
20092;BMP180;10205;49.678;6.560;2023-04-25T00:10:57;99341.00;;;15.20
20092;BMP180;10205;49.678;6.560;2023-04-25T00:13:24;99340.00;;;15.20
20092;BMP180;10205;49.678;6.560;2023-04-25T00:15:52;99337.00;;;15.10
20092;BMP180;10205;49.678;6.560;2023-04-25T00:18:19;99340.00;;;15.20
20092;BMP180;10205;49.678;6.560;2023-04-25T00:20:47;99331.00;;;15.10
20092;BMP180;10205;49.678;6.560;2023-04-25T00:23:16;99341.00;;;15.10
20092;BMP180;10205;49.678;6.560;2023-04-25T00:25:44;99333.00;;;15.10
20092;BMP180;10205;49.678;6.560;2023-04-25T00:28:13;99336.00;;;15.10
20092;BMP180;10205;49.678;6.560;2023-04-25T00:30:42;99345.00;;;15.10
20092;BMP180;10205;49.678;6.560;2023-04-25T00:33:10;99348.00;;;15.00
20092;BMP180;10205;49.678;6.560;2023-04-25T00:35:38;99348.00;;;15.00
20092;BMP180;10205;49.678;6.560;2023-04-25T00:38:05;99335.00;;;15.00
20092;BMP180;10205;49.678;6.560;2023-04-25T00:40:33;99344.00;;;15.00
20092;BMP180;10205;49.678;6.560;2023-04-25T00:43:00;99340.00;;;15.00
20092;BMP180;10205;49.678;6.560;2023-04-25T00:45:29;99340.00;;;15.00
20092;BMP180;10205;49.678;6.560;2023-04-25T00:47:57;99329.00;;;15.00
20092;BMP180;10205;49.678;6.560;2023-04-25T00:50:24;99329.00;;;14.90
20092;BMP180;10205;49.678;6.560;2023-04-25T00:52:51;99329.00;;;14.90
20092;BMP180;10205;49.678;6.560;2023-04-25T00:55:20;99321.00;;;14.90
20092;BMP180;10205;49.678;6.560;2023-04-25T00:57:47;99335.00;;;14.90
20092;BMP180;10205;49.678;6.560;2023-04-25T01:00:15;99327.00;;;14.90
20092;BMP180;10205;49.678;6.560;2023-04-25T01:02:45;99336.00;;;14.90
20092;BMP180;10205;49.678;6.560;2023-04-25T01:05:12;99339.00;;;14.80
20092;BMP180;10205;49.678;6.560;2023-04-25T01:07:39;99331.00;;;14.80
20092;BMP180;10205;49.678;6.560;2023-04-25T01:10:08;99320.00;;;14.80
20092;BMP180;10205;49.678;6.560;2023-04-25T01:12:35;99316.00;;;14.80
20092;BMP180;10205;49.678;6.560;2023-04-25T01:15:04;99314.00;;;14.80
20092;BMP180;10205;49.678;6.560;2023-04-25T01:17:31;99313.00;;;14.80
20092;BMP180;10205;49.678;6.560;2023-04-25T01:20:03;99314.00;;;14.80
20092;BMP180;10205;49.678;6.560;2023-04-25T01:22:32;99311.00;;;14.70
20092;BMP180;10205;49.678;6.560;2023-04-25T01:25:03;99309.00;;;14.70
20092;BMP180;10205;49.678;6.560;2023-04-25T01:27:31;99310.00;;;14.70
20092;BMP180;10205;49.678;6.560;2023-04-25T01:30:00;99313.00;;;14.70
20092;BMP180;10205;49.678;6.560;2023-04-25T01:32:27;99305.00;;;14.70
20092;BMP180;10205;49.678;6.560;2023-04-25T01:34:54;99310.00;;;14.70
20092;BMP180;10205;49.678;6.560;2023-04-25T01:37:22;99300.00;;;14.70
20092;BMP180;10205;49.678;6.560;2023-04-25T01:39:50;99311.00;;;14.60
20092;BMP180;10205;49.678;6.560;2023-04-25T01:42:18;99298.00;;;14.60
20092;BMP180;10205;49.678;6.560;2023-04-25T01:44:45;99288.00;;;14.60
20092;BMP180;10205;49.678;6.560;2023-04-25T01:47:12;99299.00;;;14.60
20092;BMP180;10205;49.678;6.560;2023-04-25T01:49:39;99290.00;;;14.60
20092;BMP180;10205;49.678;6.560;2023-04-25T01:52:06;99286.00;;;14.60
20092;BMP180;10205;49.678;6.560;2023-04-25T01:54:34;99298.00;;;14.60
20092;BMP180;10205;49.678;6.560;2023-04-25T01:57:02;99270.00;;;14.60
20092;BMP180;10205;49.678;6.560;2023-04-25T01:59:29;99300.00;;;14.50
20092;BMP180;10205;49.678;6.560;2023-04-25T02:01:56;99310.00;;;14.50
20092;BMP180;10205;49.678;6.560;2023-04-25T02:04:24;99291.00;;;14.50
20092;BMP180;10205;49.678;6.560;2023-04-25T02:06:51;99299.00;;;14.50
20092;BMP180;10205;49.678;6.560;2023-04-25T02:09:20;99295.00;;;14.50
20092;BMP180;10205;49.678;6.560;2023-04-25T02:11:47;99299.00;;;14.50
20092;BMP180;10205;49.678;6.560;2023-04-25T02:14:16;99305.00;;;14.50
20092;BMP180;10205;49.678;6.560;2023-04-25T02:16:43;99293.00;;;14.50
20092;BMP180;10205;49.678;6.560;2023-04-25T02:19:10;99309.00;;;14.50
20092;BMP180;10205;49.678;6.560;2023-04-25T02:21:38;99312.00;;;14.50
20092;BMP180;10205;49.678;6.560;2023-04-25T02:24:06;99307.00;;;14.40
20092;BMP180;10205;49.678;6.560;2023-04-25T02:26:34;99288.00;;;14.40
20092;BMP180;10205;49.678;6.560;2023-04-25T02:29:01;99291.00;;;14.40
20092;BMP180;10205;49.678;6.560;2023-04-25T02:31:29;99299.00;;;14.40
20092;BMP180;10205;49.678;6.560;2023-04-25T02:33:56;99288.00;;;14.40
20092;BMP180;10205;49.678;6.560;2023-04-25T02:36:23;99297.00;;;14.40
20092;BMP180;10205;49.678;6.560;2023-04-25T02:38:52;99305.00;;;14.40
20092;BMP180;10205;49.678;6.560;2023-04-25T02:41:19;99294.00;;;14.30
20092;BMP180;10205;49.678;6.560;2023-04-25T02:43:47;99289.00;;;14.30
20092;BMP180;10205;49.678;6.560;2023-04-25T02:46:14;99291.00;;;14.30
20092;BMP180;10205;49.678;6.560;2023-04-25T02:48:43;99294.00;;;14.30
20092;BMP180;10205;49.678;6.560;2023-04-25T02:51:10;99282.00;;;14.30
20092;BMP180;10205;49.678;6.560;2023-04-25T02:53:37;99280.00;;;14.30
20092;BMP180;10205;49.678;6.560;2023-04-25T02:56:05;99293.00;;;14.30
20092;BMP180;10205;49.678;6.560;2023-04-25T02:58:32;99289.00;;;14.30
20092;BMP180;10205;49.678;6.560;2023-04-25T03:00:59;99291.00;;;14.30
20092;BMP180;10205;49.678;6.560;2023-04-25T03:03:29;99287.00;;;14.30
20092;BMP180;10205;49.678;6.560;2023-04-25T03:05:58;99285.00;;;14.20
20092;BMP180;10205;49.678;6.560;2023-04-25T03:08:25;99287.00;;;14.20
20092;BMP180;10205;49.678;6.560;2023-04-25T03:11:00;99292.00;;;14.20
20092;BMP180;10205;49.678;6.560;2023-04-25T03:13:28;99297.00;;;14.20
20092;BMP180;10205;49.678;6.560;2023-04-25T03:15:55;99294.00;;;14.20
20092;BMP180;10205;49.678;6.560;2023-04-25T03:18:22;99299.00;;;14.20
20092;BMP180;10205;49.678;6.560;2023-04-25T03:20:50;99305.00;;;14.20
20092;BMP180;10205;49.678;6.560;2023-04-25T03:23:18;99299.00;;;14.20
20092;BMP180;10205;49.678;6.560;2023-04-25T03:25:45;99308.00;;;14.20
20092;BMP180;10205;49.678;6.560;2023-04-25T03:28:13;99304.00;;;14.10
20092;BMP180;10205;49.678;6.560;2023-04-25T03:30:40;99306.00;;;14.10
20092;BMP180;10205;49.678;6.560;2023-04-25T03:33:07;99294.00;;;14.10
20092;BMP180;10205;49.678;6.560;2023-04-25T03:35:34;99294.00;;;14.10
20092;BMP180;10205;49.678;6.560;2023-04-25T03:38:01;99286.00;;;14.10
20092;BMP180;10205;49.678;6.560;2023-04-25T03:40:30;99289.00;;;14.10
20092;BMP180;10205;49.678;6.560;2023-04-25T03:42:57;99291.00;;;14.10
20092;BMP180;10205;49.678;6.560;2023-04-25T03:45:24;99293.00;;;14.10
20092;BMP180;10205;49.678;6.560;2023-04-25T03:47:51;99284.00;;;14.10
20092;BMP180;10205;49.678;6.560;2023-04-25T03:50:19;99308.00;;;14.10
20092;BMP180;10205;49.678;6.560;2023-04-25T03:52:46;99304.00;;;14.10
20092;BMP180;10205;49.678;6.560;2023-04-25T03:55:13;99298.00;;;14.00
20092;BMP180;10205;49.678;6.560;2023-04-25T03:57:41;99304.00;;;14.00
20092;BMP180;10205;49.678;6.560;2023-04-25T04:00:10;99306.00;;;14.00
20092;BMP180;10205;49.678;6.560;2023-04-25T04:02:37;99310.00;;;14.00
20092;BMP180;10205;49.678;6.560;2023-04-25T04:05:05;99306.00;;;14.00
20092;BMP180;10205;49.678;6.560;2023-04-25T04:07:32;99304.00;;;14.00
20092;BMP180;10205;49.678;6.560;2023-04-25T04:10:06;99315.00;;;14.00
20092;BMP180;10205;49.678;6.560;2023-04-25T04:12:33;99314.00;;;14.00
20092;BMP180;10205;49.678;6.560;2023-04-25T04:15:02;99300.00;;;14.00
20092;BMP180;10205;49.678;6.560;2023-04-25T04:17:30;99305.00;;;14.00
20092;BMP180;10205;49.678;6.560;2023-04-25T04:19:57;99296.00;;;13.90
20092;BMP180;10205;49.678;6.560;2023-04-25T04:22:25;99311.00;;;13.90
20092;BMP180;10205;49.678;6.560;2023-04-25T04:24:52;99297.00;;;13.90
20092;BMP180;10205;49.678;6.560;2023-04-25T04:27:21;99315.00;;;13.90
20092;BMP180;10205;49.678;6.560;2023-04-25T04:29:52;99309.00;;;13.90
20092;BMP180;10205;49.678;6.560;2023-04-25T04:32:22;99315.00;;;13.90
20092;BMP180;10205;49.678;6.560;2023-04-25T04:34:51;99316.00;;;13.90
20092;BMP180;10205;49.678;6.560;2023-04-25T04:37:20;99331.00;;;13.90
20092;BMP180;10205;49.678;6.560;2023-04-25T04:39:48;99340.00;;;13.90
20092;BMP180;10205;49.678;6.560;2023-04-25T04:42:15;99323.00;;;13.90
20092;BMP180;10205;49.678;6.560;2023-04-25T04:44:43;99330.00;;;13.90
20092;BMP180;10205;49.678;6.560;2023-04-25T04:47:10;99340.00;;;13.90
20092;BMP180;10205;49.678;6.560;2023-04-25T04:49:41;99338.00;;;13.90
20092;BMP180;10205;49.678;6.560;2023-04-25T04:52:08;99329.00;;;13.80
20092;BMP180;10205;49.678;6.560;2023-04-25T04:54:35;99342.00;;;13.80
20092;BMP180;10205;49.678;6.560;2023-04-25T04:57:03;99340.00;;;13.80
20092;BMP180;10205;49.678;6.560;2023-04-25T04:59:30;99336.00;;;13.80
20092;BMP180;10205;49.678;6.560;2023-04-25T05:01:57;99341.00;;;13.80
20092;BMP180;10205;49.678;6.560;2023-04-25T05:04:24;99326.00;;;13.80
20092;BMP180;10205;49.678;6.560;2023-04-25T05:06:52;99332.00;;;13.80
20092;BMP180;10205;49.678;6.560;2023-04-25T05:09:20;99334.00;;;13.80
20092;BMP180;10205;49.678;6.560;2023-04-25T05:11:53;99340.00;;;13.80
20092;BMP180;10205;49.678;6.560;2023-04-25T05:14:21;99346.00;;;13.80
20092;BMP180;10205;49.678;6.560;2023-04-25T05:16:49;99350.00;;;13.80
20092;BMP180;10205;49.678;6.560;2023-04-25T05:19:16;99352.00;;;13.80
20092;BMP180;10205;49.678;6.560;2023-04-25T05:21:44;99356.00;;;13.70
20092;BMP180;10205;49.678;6.560;2023-04-25T05:24:12;99357.00;;;13.70
20092;BMP180;10205;49.678;6.560;2023-04-25T05:26:40;99363.00;;;13.70
20092;BMP180;10205;49.678;6.560;2023-04-25T05:29:07;99358.00;;;13.70
20092;BMP180;10205;49.678;6.560;2023-04-25T05:31:35;99370.00;;;13.70
20092;BMP180;10205;49.678;6.560;2023-04-25T05:34:02;99360.00;;;13.70
20092;BMP180;10205;49.678;6.560;2023-04-25T05:36:30;99368.00;;;13.70
20092;BMP180;10205;49.678;6.560;2023-04-25T05:38:58;99381.00;;;13.70
20092;BMP180;10205;49.678;6.560;2023-04-25T05:41:26;99381.00;;;13.70
20092;BMP180;10205;49.678;6.560;2023-04-25T05:43:53;99368.00;;;13.70
20092;BMP180;10205;49.678;6.560;2023-04-25T05:46:20;99367.00;;;13.70
20092;BMP180;10205;49.678;6.560;2023-04-25T05:48:48;99374.00;;;13.60
20092;BMP180;10205;49.678;6.560;2023-04-25T05:51:15;99367.00;;;13.70
20092;BMP180;10205;49.678;6.560;2023-04-25T05:53:44;99379.00;;;13.60
20092;BMP180;10205;49.678;6.560;2023-04-25T05:56:11;99377.00;;;13.60
20092;BMP180;10205;49.678;6.560;2023-04-25T05:58:40;99375.00;;;13.60
20092;BMP180;10205;49.678;6.560;2023-04-25T06:01:07;99381.00;;;13.60
20092;BMP180;10205;49.678;6.560;2023-04-25T06:03:36;99384.00;;;13.60
20092;BMP180;10205;49.678;6.560;2023-04-25T06:06:04;99393.00;;;13.60
20092;BMP180;10205;49.678;6.560;2023-04-25T06:08:32;99398.00;;;13.60
20092;BMP180;10205;49.678;6.560;2023-04-25T06:10:59;99398.00;;;13.60
20092;BMP180;10205;49.678;6.560;2023-04-25T06:13:26;99402.00;;;13.60
20092;BMP180;10205;49.678;6.560;2023-04-25T06:15:54;99396.00;;;13.60
20092;BMP180;10205;49.678;6.560;2023-04-25T06:18:21;99400.00;;;13.60
20092;BMP180;10205;49.678;6.560;2023-04-25T06:20:48;99405.00;;;13.60
20092;BMP180;10205;49.678;6.560;2023-04-25T06:23:15;99401.00;;;13.60
20092;BMP180;10205;49.678;6.560;2023-04-25T06:25:42;99410.00;;;13.60
20092;BMP180;10205;49.678;6.560;2023-04-25T06:28:10;99403.00;;;13.60
20092;BMP180;10205;49.678;6.560;2023-04-25T06:30:37;99423.00;;;13.60
20092;BMP180;10205;49.678;6.560;2023-04-25T06:33:05;99410.00;;;13.60
20092;BMP180;10205;49.678;6.560;2023-04-25T06:35:34;99412.00;;;13.50
20092;BMP180;10205;49.678;6.560;2023-04-25T06:38:01;99414.00;;;13.50
20092;BMP180;10205;49.678;6.560;2023-04-25T06:40:28;99415.00;;;13.50
20092;BMP180;10205;49.678;6.560;2023-04-25T06:42:55;99423.00;;;13.50
20092;BMP180;10205;49.678;6.560;2023-04-25T06:45:22;99429.00;;;13.50
20092;BMP180;10205;49.678;6.560;2023-04-25T06:47:49;99429.00;;;13.50
20092;BMP180;10205;49.678;6.560;2023-04-25T06:50:18;99431.00;;;13.50
20092;BMP180;10205;49.678;6.560;2023-04-25T06:52:44;99430.00;;;13.50
20092;BMP180;10205;49.678;6.560;2023-04-25T06:55:11;99440.00;;;13.50
20092;BMP180;10205;49.678;6.560;2023-04-25T06:57:38;99441.00;;;13.40
20092;BMP180;10205;49.678;6.560;2023-04-25T07:00:07;99449.00;;;13.40
20092;BMP180;10205;49.678;6.560;2023-04-25T07:02:35;99449.00;;;13.30
20092;BMP180;10205;49.678;6.560;2023-04-25T07:05:02;99460.00;;;13.30
20092;BMP180;10205;49.678;6.560;2023-04-25T07:07:31;99454.00;;;13.20
20092;BMP180;10205;49.678;6.560;2023-04-25T07:09:58;99453.00;;;13.20
20092;BMP180;10205;49.678;6.560;2023-04-25T07:12:26;99455.00;;;13.20
20092;BMP180;10205;49.678;6.560;2023-04-25T07:14:53;99465.00;;;13.20
20092;BMP180;10205;49.678;6.560;2023-04-25T07:17:20;99463.00;;;13.20
20092;BMP180;10205;49.678;6.560;2023-04-25T07:19:47;99478.00;;;13.20
20092;BMP180;10205;49.678;6.560;2023-04-25T07:22:14;99470.00;;;13.20
20092;BMP180;10205;49.678;6.560;2023-04-25T07:24:42;99476.00;;;13.20
20092;BMP180;10205;49.678;6.560;2023-04-25T07:27:13;99478.00;;;13.20
20092;BMP180;10205;49.678;6.560;2023-04-25T07:29:40;99471.00;;;13.20
20092;BMP180;10205;49.678;6.560;2023-04-25T07:32:07;99478.00;;;13.20
20092;BMP180;10205;49.678;6.560;2023-04-25T07:34:35;99480.00;;;13.20
20092;BMP180;10205;49.678;6.560;2023-04-25T07:37:05;99489.00;;;13.20
20092;BMP180;10205;49.678;6.560;2023-04-25T07:39:32;99496.00;;;13.10
20092;BMP180;10205;49.678;6.560;2023-04-25T07:42:00;99506.00;;;13.20
20092;BMP180;10205;49.678;6.560;2023-04-25T07:44:27;99496.00;;;13.20
20092;BMP180;10205;49.678;6.560;2023-04-25T07:46:58;99501.00;;;13.20
20092;BMP180;10205;49.678;6.560;2023-04-25T07:49:25;99514.00;;;13.20
20092;BMP180;10205;49.678;6.560;2023-04-25T07:51:52;99503.00;;;13.20
20092;BMP180;10205;49.678;6.560;2023-04-25T07:54:19;99505.00;;;13.20
20092;BMP180;10205;49.678;6.560;2023-04-25T07:56:47;99510.00;;;13.20
20092;BMP180;10205;49.678;6.560;2023-04-25T07:59:15;99511.00;;;13.20
20092;BMP180;10205;49.678;6.560;2023-04-25T08:01:45;99518.00;;;13.20
20092;BMP180;10205;49.678;6.560;2023-04-25T08:04:12;99525.00;;;13.20
20092;BMP180;10205;49.678;6.560;2023-04-25T08:06:39;99535.00;;;13.20
20092;BMP180;10205;49.678;6.560;2023-04-25T08:09:06;99537.00;;;13.20
20092;BMP180;10205;49.678;6.560;2023-04-25T08:11:34;99541.00;;;13.20
20092;BMP180;10205;49.678;6.560;2023-04-25T08:14:01;99546.00;;;13.10
20092;BMP180;10205;49.678;6.560;2023-04-25T08:16:30;99538.00;;;13.10
20092;BMP180;10205;49.678;6.560;2023-04-25T08:18:57;99548.00;;;13.10
20092;BMP180;10205;49.678;6.560;2023-04-25T08:21:24;99553.00;;;13.10
20092;BMP180;10205;49.678;6.560;2023-04-25T08:23:52;99561.00;;;13.10
20092;BMP180;10205;49.678;6.560;2023-04-25T08:26:19;99554.00;;;13.10
20092;BMP180;10205;49.678;6.560;2023-04-25T08:28:47;99560.00;;;13.10
20092;BMP180;10205;49.678;6.560;2023-04-25T08:31:14;99561.00;;;13.20
20092;BMP180;10205;49.678;6.560;2023-04-25T08:33:43;99561.00;;;13.20
20092;BMP180;10205;49.678;6.560;2023-04-25T08:36:10;99567.00;;;13.10
20092;BMP180;10205;49.678;6.560;2023-04-25T08:38:38;99575.00;;;13.20
20092;BMP180;10205;49.678;6.560;2023-04-25T08:41:06;99580.00;;;13.10
20092;BMP180;10205;49.678;6.560;2023-04-25T08:43:35;99590.00;;;13.20
20092;BMP180;10205;49.678;6.560;2023-04-25T08:46:02;99586.00;;;13.10
20092;BMP180;10205;49.678;6.560;2023-04-25T08:48:33;99590.00;;;13.10
20092;BMP180;10205;49.678;6.560;2023-04-25T08:51:06;99601.00;;;13.10
20092;BMP180;10205;49.678;6.560;2023-04-25T08:53:34;99607.00;;;13.10
20092;BMP180;10205;49.678;6.560;2023-04-25T08:56:01;99604.00;;;13.10
20092;BMP180;10205;49.678;6.560;2023-04-25T08:58:29;99597.00;;;13.10
20092;BMP180;10205;49.678;6.560;2023-04-25T09:00:57;99609.00;;;13.10
20092;BMP180;10205;49.678;6.560;2023-04-25T09:03:24;99619.00;;;13.10
20092;BMP180;10205;49.678;6.560;2023-04-25T09:05:52;99617.00;;;13.10
20092;BMP180;10205;49.678;6.560;2023-04-25T09:08:21;99627.00;;;13.20
20092;BMP180;10205;49.678;6.560;2023-04-25T09:10:48;99626.00;;;13.20
20092;BMP180;10205;49.678;6.560;2023-04-25T09:13:25;99629.00;;;13.20
20092;BMP180;10205;49.678;6.560;2023-04-25T09:15:54;99631.00;;;13.20
20092;BMP180;10205;49.678;6.560;2023-04-25T09:18:26;99636.00;;;13.20
20092;BMP180;10205;49.678;6.560;2023-04-25T09:20:54;99634.00;;;13.20
20092;BMP180;10205;49.678;6.560;2023-04-25T09:23:24;99632.00;;;13.20
20092;BMP180;10205;49.678;6.560;2023-04-25T09:25:54;99633.00;;;13.30
20092;BMP180;10205;49.678;6.560;2023-04-25T09:28:25;99641.00;;;13.30
20092;BMP180;10205;49.678;6.560;2023-04-25T09:30:56;99642.00;;;13.30
20092;BMP180;10205;49.678;6.560;2023-04-25T09:33:29;99655.00;;;13.30
20092;BMP180;10205;49.678;6.560;2023-04-25T09:36:04;99656.00;;;13.30
20092;BMP180;10205;49.678;6.560;2023-04-25T09:38:40;99658.00;;;13.40
20092;BMP180;10205;49.678;6.560;2023-04-25T09:41:08;99664.00;;;13.40
20092;BMP180;10205;49.678;6.560;2023-04-25T09:43:37;99678.00;;;13.40
20092;BMP180;10205;49.678;6.560;2023-04-25T09:46:09;99663.00;;;13.40
20092;BMP180;10205;49.678;6.560;2023-04-25T09:48:37;99671.00;;;13.50
20092;BMP180;10205;49.678;6.560;2023-04-25T09:51:09;99670.00;;;13.50
20092;BMP180;10205;49.678;6.560;2023-04-25T09:53:40;99673.00;;;13.50
20092;BMP180;10205;49.678;6.560;2023-04-25T09:56:10;99680.00;;;13.50
20092;BMP180;10205;49.678;6.560;2023-04-25T09:58:40;99679.00;;;13.60
20092;BMP180;10205;49.678;6.560;2023-04-25T10:01:09;99683.00;;;13.60
20092;BMP180;10205;49.678;6.560;2023-04-25T10:03:39;99691.00;;;13.60
20092;BMP180;10205;49.678;6.560;2023-04-25T10:06:09;99688.00;;;13.60
20092;BMP180;10205;49.678;6.560;2023-04-25T10:08:38;99698.00;;;13.60
20092;BMP180;10205;49.678;6.560;2023-04-25T10:11:08;99693.00;;;13.60
20092;BMP180;10205;49.678;6.560;2023-04-25T10:13:36;99704.00;;;13.60
20092;BMP180;10205;49.678;6.560;2023-04-25T10:16:04;99698.00;;;13.60
20092;BMP180;10205;49.678;6.560;2023-04-25T10:18:33;99701.00;;;13.60
20092;BMP180;10205;49.678;6.560;2023-04-25T10:21:02;99706.00;;;13.60
20092;BMP180;10205;49.678;6.560;2023-04-25T10:23:30;99704.00;;;13.60
20092;BMP180;10205;49.678;6.560;2023-04-25T10:25:59;99703.00;;;13.60
20092;BMP180;10205;49.678;6.560;2023-04-25T10:28:27;99704.00;;;13.60
20092;BMP180;10205;49.678;6.560;2023-04-25T10:30:58;99707.00;;;13.60
20092;BMP180;10205;49.678;6.560;2023-04-25T10:33:36;99707.00;;;13.60
20092;BMP180;10205;49.678;6.560;2023-04-25T10:36:11;99709.00;;;13.50
20092;BMP180;10205;49.678;6.560;2023-04-25T10:38:39;99719.00;;;13.60
20092;BMP180;10205;49.678;6.560;2023-04-25T10:41:10;99713.00;;;13.60
20092;BMP180;10205;49.678;6.560;2023-04-25T10:43:39;99707.00;;;13.60
20092;BMP180;10205;49.678;6.560;2023-04-25T10:46:16;99708.00;;;13.60
20092;BMP180;10205;49.678;6.560;2023-04-25T10:48:48;99703.00;;;13.60
20092;BMP180;10205;49.678;6.560;2023-04-25T10:51:22;99693.00;;;13.60
20092;BMP180;10205;49.678;6.560;2023-04-25T10:53:59;99697.00;;;13.60
20092;BMP180;10205;49.678;6.560;2023-04-25T10:56:29;99698.00;;;13.60
20092;BMP180;10205;49.678;6.560;2023-04-25T10:59:11;99691.00;;;13.70
20092;BMP180;10205;49.678;6.560;2023-04-25T11:01:41;99698.00;;;13.70
20092;BMP180;10205;49.678;6.560;2023-04-25T11:04:20;99701.00;;;13.70
20092;BMP180;10205;49.678;6.560;2023-04-25T11:07:03;99702.00;;;13.70
20092;BMP180;10205;49.678;6.560;2023-04-25T11:09:33;99695.00;;;13.80
20092;BMP180;10205;49.678;6.560;2023-04-25T11:12:02;99708.00;;;13.80
20092;BMP180;10205;49.678;6.560;2023-04-25T11:14:29;99703.00;;;13.80
20092;BMP180;10205;49.678;6.560;2023-04-25T11:16:58;99705.00;;;13.80
20092;BMP180;10205;49.678;6.560;2023-04-25T11:19:26;99706.00;;;13.90
20092;BMP180;10205;49.678;6.560;2023-04-25T11:21:55;99714.00;;;13.90
20092;BMP180;10205;49.678;6.560;2023-04-25T11:24:26;99707.00;;;14.00
20092;BMP180;10205;49.678;6.560;2023-04-25T11:26:54;99709.00;;;14.00
20092;BMP180;10205;49.678;6.560;2023-04-25T11:29:26;99712.00;;;14.10
20092;BMP180;10205;49.678;6.560;2023-04-25T11:31:54;99707.00;;;14.10
20092;BMP180;10205;49.678;6.560;2023-04-25T11:34:22;99703.00;;;14.10
20092;BMP180;10205;49.678;6.560;2023-04-25T11:36:50;99714.00;;;14.20
20092;BMP180;10205;49.678;6.560;2023-04-25T11:39:19;99713.00;;;14.30
20092;BMP180;10205;49.678;6.560;2023-04-25T11:41:47;99708.00;;;14.30
20092;BMP180;10205;49.678;6.560;2023-04-25T11:44:16;99707.00;;;14.30
20092;BMP180;10205;49.678;6.560;2023-04-25T11:46:45;99712.00;;;14.40
20092;BMP180;10205;49.678;6.560;2023-04-25T11:49:13;99702.00;;;14.40
20092;BMP180;10205;49.678;6.560;2023-04-25T11:51:40;99699.00;;;14.40
20092;BMP180;10205;49.678;6.560;2023-04-25T11:54:09;99704.00;;;14.40
20092;BMP180;10205;49.678;6.560;2023-04-25T11:56:36;99702.00;;;14.50
20092;BMP180;10205;49.678;6.560;2023-04-25T11:59:05;99688.00;;;14.50
20092;BMP180;10205;49.678;6.560;2023-04-25T12:01:34;99699.00;;;14.50
20092;BMP180;10205;49.678;6.560;2023-04-25T12:04:14;99706.00;;;14.50
20092;BMP180;10205;49.678;6.560;2023-04-25T12:06:43;99719.00;;;14.60
20092;BMP180;10205;49.678;6.560;2023-04-25T12:09:12;99726.00;;;14.60
20092;BMP180;10205;49.678;6.560;2023-04-25T12:11:45;99716.00;;;14.60
20092;BMP180;10205;49.678;6.560;2023-04-25T12:14:20;99737.00;;;14.60
20092;BMP180;10205;49.678;6.560;2023-04-25T12:16:48;99728.00;;;14.60
20092;BMP180;10205;49.678;6.560;2023-04-25T12:19:19;99748.00;;;14.60
20092;BMP180;10205;49.678;6.560;2023-04-25T12:21:48;99744.00;;;14.70
20092;BMP180;10205;49.678;6.560;2023-04-25T12:24:21;99747.00;;;14.70
20092;BMP180;10205;49.678;6.560;2023-04-25T12:26:51;99748.00;;;14.70
20092;BMP180;10205;49.678;6.560;2023-04-25T12:29:23;99756.00;;;14.70
20092;BMP180;10205;49.678;6.560;2023-04-25T12:31:53;99747.00;;;14.70
20092;BMP180;10205;49.678;6.560;2023-04-25T12:34:23;99748.00;;;14.80
20092;BMP180;10205;49.678;6.560;2023-04-25T12:36:52;99750.00;;;14.80
20092;BMP180;10205;49.678;6.560;2023-04-25T12:39:22;99753.00;;;14.80
20092;BMP180;10205;49.678;6.560;2023-04-25T12:41:50;99756.00;;;14.80
20092;BMP180;10205;49.678;6.560;2023-04-25T12:44:18;99760.00;;;14.80
20092;BMP180;10205;49.678;6.560;2023-04-25T12:46:45;99762.00;;;14.90
20092;BMP180;10205;49.678;6.560;2023-04-25T12:49:13;99772.00;;;15.00
20092;BMP180;10205;49.678;6.560;2023-04-25T12:51:42;99768.00;;;15.10
20092;BMP180;10205;49.678;6.560;2023-04-25T12:54:09;99760.00;;;15.20
20092;BMP180;10205;49.678;6.560;2023-04-25T12:56:36;99751.00;;;15.30
20092;BMP180;10205;49.678;6.560;2023-04-25T12:59:03;99743.00;;;15.50
20092;BMP180;10205;49.678;6.560;2023-04-25T13:01:30;99750.00;;;15.60
20092;BMP180;10205;49.678;6.560;2023-04-25T13:03:58;99769.00;;;15.70
20092;BMP180;10205;49.678;6.560;2023-04-25T13:06:25;99750.00;;;15.80
20092;BMP180;10205;49.678;6.560;2023-04-25T13:08:54;99754.00;;;16.00
20092;BMP180;10205;49.678;6.560;2023-04-25T13:11:21;99742.00;;;16.10
20092;BMP180;10205;49.678;6.560;2023-04-25T13:13:49;99740.00;;;16.20
20092;BMP180;10205;49.678;6.560;2023-04-25T13:16:16;99743.00;;;16.40
20092;BMP180;10205;49.678;6.560;2023-04-25T13:18:44;99757.00;;;16.50
20092;BMP180;10205;49.678;6.560;2023-04-25T13:21:11;99758.00;;;16.60
20092;BMP180;10205;49.678;6.560;2023-04-25T13:23:39;99746.00;;;16.60
20092;BMP180;10205;49.678;6.560;2023-04-25T13:26:10;99742.00;;;16.70
20092;BMP180;10205;49.678;6.560;2023-04-25T13:28:37;99748.00;;;16.70
20092;BMP180;10205;49.678;6.560;2023-04-25T13:31:06;99749.00;;;16.70
20092;BMP180;10205;49.678;6.560;2023-04-25T13:33:33;99749.00;;;16.70
20092;BMP180;10205;49.678;6.560;2023-04-25T13:36:01;99749.00;;;16.80
20092;BMP180;10205;49.678;6.560;2023-04-25T13:38:29;99749.00;;;16.80
20092;BMP180;10205;49.678;6.560;2023-04-25T13:40:56;99760.00;;;16.80
20092;BMP180;10205;49.678;6.560;2023-04-25T13:43:24;99757.00;;;16.90
20092;BMP180;10205;49.678;6.560;2023-04-25T13:45:51;99767.00;;;17.00
20092;BMP180;10205;49.678;6.560;2023-04-25T13:48:19;99770.00;;;17.10
20092;BMP180;10205;49.678;6.560;2023-04-25T13:50:46;99769.00;;;17.10
20092;BMP180;10205;49.678;6.560;2023-04-25T13:53:14;99760.00;;;17.20
20092;BMP180;10205;49.678;6.560;2023-04-25T13:55:41;99774.00;;;17.30
20092;BMP180;10205;49.678;6.560;2023-04-25T13:58:08;99775.00;;;17.30
20092;BMP180;10205;49.678;6.560;2023-04-25T14:00:38;99776.00;;;17.40
20092;BMP180;10205;49.678;6.560;2023-04-25T14:03:06;99782.00;;;17.40
20092;BMP180;10205;49.678;6.560;2023-04-25T14:05:34;99782.00;;;17.40
20092;BMP180;10205;49.678;6.560;2023-04-25T14:08:08;99778.00;;;17.50
20092;BMP180;10205;49.678;6.560;2023-04-25T14:10:36;99779.00;;;17.50
20092;BMP180;10205;49.678;6.560;2023-04-25T14:13:05;99788.00;;;17.50
20092;BMP180;10205;49.678;6.560;2023-04-25T14:15:33;99782.00;;;17.60